»·PEaware :: QXE952 KSFO-KSBA

QXE952 :: KSFO-KSBA

FLIGHT INFORMATION

Flight Status: Arrived
Operator:
Horizon Air
More flights by this operator :: More flights under this callsign
Pilot: Jack B. (5846)
Aircraft: Unknown
(DHC8)
More flights by this aircraft type
Origin: KSFO San Francisco Intl
United States
Destination: KSBA Santa Barbara Mun
United States
More flights between these airports :: More routes between these airports
Route: OFFSH9 RZS
File this flight plan on PilotEdge
Remarks:
Altitude:
(Current/Filed)
250ft
Speed:
(Current/Filed)
300kts
Departed: 20-Jun-15 08:48 AM
Arrived: 20-Jun-15 09:55 AM
Distance/Time
Traveled:
228nm/1:07
Distance/Time
To Go:
Arrived

Flight Plot

Page will automatically refresh every two minutes.


Map Options




Map Legend


Flown Route
Filed Route
Departure Airport
Arrival Airport
Navaid (VOR, NDB)
Fix

Horizontal Profiles

Position Reports

Time Latitude Longitude Heading Altitude Ground
Speed
20-Jun-15 08:17 37.614011 -122.384455 252 30ft 0kts
20-Jun-15 08:18 37.614011 -122.384455 252 30ft 0kts
20-Jun-15 08:19 37.614011 -122.384455 252 30ft 0kts
20-Jun-15 08:20 37.614011 -122.384455 252 30ft 0kts
20-Jun-15 08:21 37.614011 -122.384455 252 30ft 0kts
20-Jun-15 08:22 37.614011 -122.384455 252 30ft 0kts
20-Jun-15 08:23 37.614011 -122.384455 252 30ft 0kts
20-Jun-15 08:24 37.614011 -122.384455 252 30ft 0kts
20-Jun-15 08:25 37.614011 -122.384455 252 30ft 0kts
20-Jun-15 08:26 37.614011 -122.384455 252 30ft 0kts
20-Jun-15 08:27 37.614011 -122.384455 252 30ft 0kts
20-Jun-15 08:28 37.614011 -122.384455 252 30ft 0kts
20-Jun-15 08:29 37.614011 -122.384455 252 30ft 0kts
20-Jun-15 08:30 37.614011 -122.384455 252 30ft 0kts
20-Jun-15 08:31 37.614011 -122.384455 252 30ft 0kts
20-Jun-15 08:32 37.614011 -122.384455 252 30ft 0kts
20-Jun-15 08:33 37.614011 -122.384455 252 30ft 0kts
20-Jun-15 08:34 37.614011 -122.384455 252 30ft 0kts
20-Jun-15 08:35 37.614011 -122.384455 252 30ft 0kts
20-Jun-15 08:36 37.614011 -122.384455 252 30ft 0kts
20-Jun-15 08:37 37.614050 -122.384234 259 30ft 0kts
20-Jun-15 08:38 37.614050 -122.384199 259 30ft 0kts
20-Jun-15 08:39 37.614051 -122.384161 259 30ft 0kts
20-Jun-15 08:40 37.614051 -122.384161 259 30ft 0kts
20-Jun-15 08:41 37.614059 -122.384423 308 30ft 1kts
20-Jun-15 08:42 37.614241 -122.384256 110 30ft 0kts
20-Jun-15 08:43 37.613814 -122.383184 116 30ft 14kts
20-Jun-15 08:44 37.612691 -122.382221 205 30ft 9kts
20-Jun-15 08:45 37.610529 -122.383705 212 30ft 10kts
20-Jun-15 08:46 37.609003 -122.382300 65 28ft 9kts
20-Jun-15 08:47 37.626570 -122.370966 25 659ft 146kts
20-Jun-15 08:48 37.656948 -122.350195 358 2800ft 160kts
20-Jun-15 08:49 37.690583 -122.358128 333 4748ft 173kts
20-Jun-15 08:50 37.695937 -122.387561 237 6063ft 193kts
20-Jun-15 08:51 37.664807 -122.417376 218 7806ft 219kts
20-Jun-15 08:52 37.640323 -122.471161 249 9735ft 240kts
20-Jun-15 08:53 37.616372 -122.536201 245 11253ft 276kts
20-Jun-15 08:54 37.588500 -122.606496 243 12695ft 293kts
20-Jun-15 08:55 37.557282 -122.683969 241 14203ft 304kts
20-Jun-15 08:56 37.500293 -122.709202 173 15569ft 308kts
20-Jun-15 08:57 37.442199 -122.697170 169 16803ft 310kts
20-Jun-15 08:58 37.376125 -122.680288 168 18204ft 313kts
20-Jun-15 08:59 37.306481 -122.662003 168 19670ft 311kts
20-Jun-15 09:00 37.240164 -122.644568 168 21074ft 306kts
20-Jun-15 09:01 37.178671 -122.628423 168 22394ft 299kts
20-Jun-15 09:02 37.119922 -122.613025 168 23519ft 297kts
20-Jun-15 09:03 37.060322 -122.597432 168 24261ft 305kts
20-Jun-15 09:04 36.997516 -122.581024 168 24985ft 311kts
20-Jun-15 09:05 36.930829 -122.563689 168 25038ft 335kts
20-Jun-15 09:06 36.862923 -122.546041 168 25035ft 351kts
20-Jun-15 09:07 36.791945 -122.527592 168 25032ft 361kts
20-Jun-15 09:08 36.720264 -122.508994 168 25032ft 367kts
20-Jun-15 09:09 36.650011 -122.490809 169 25027ft 358kts
20-Jun-15 09:10 36.579861 -122.472722 169 25026ft 356kts
20-Jun-15 09:11 36.482298 -122.447591 168 25034ft 368kts
20-Jun-15 09:12 36.395181 -122.390338 131 25035ft 372kts
20-Jun-15 09:13 36.327522 -122.293493 129 25030ft 376kts
20-Jun-15 09:14 36.259915 -122.195041 130 25030ft 377kts
20-Jun-15 09:15 36.192130 -122.096598 129 25027ft 376kts
20-Jun-15 09:16 36.126800 -122.001913 129 25027ft 363kts
20-Jun-15 09:17 36.062148 -121.908506 129 25034ft 363kts
20-Jun-15 09:18 35.996079 -121.812739 130 25031ft 372kts
20-Jun-15 09:19 35.928748 -121.715919 130 25030ft 376kts
20-Jun-15 09:20 35.860390 -121.618038 130 25025ft 378kts
20-Jun-15 09:21 35.795689 -121.525605 130 25012ft 375kts
20-Jun-15 09:22 35.734705 -121.438673 130 25000ft 372kts
20-Jun-15 09:23 35.673089 -121.351141 130 24999ft 370kts
20-Jun-15 09:24 35.610407 -121.262296 130 24999ft 370kts
20-Jun-15 09:25 35.548331 -121.174537 130 24999ft 369kts
20-Jun-15 09:26 35.487602 -121.089125 130 24992ft 366kts
20-Jun-15 09:27 35.429328 -121.007732 129 24976ft 369kts
20-Jun-15 09:28 35.375494 -120.932075 130 24967ft 376kts
20-Jun-15 09:29 35.322072 -120.856966 131 24960ft 387kts
20-Jun-15 09:30 35.277156 -120.794017 131 24959ft 391kts
20-Jun-15 09:31 35.217503 -120.712464 132 24917ft 396kts
20-Jun-15 09:32 35.158112 -120.632591 131 23989ft 384kts
20-Jun-15 09:33 35.098882 -120.552991 131 23041ft 364kts
20-Jun-15 09:34 35.038032 -120.471234 132 21780ft 349kts
20-Jun-15 09:35 34.978315 -120.391459 132 20500ft 337kts
20-Jun-15 09:36 34.918677 -120.311895 132 19263ft 332kts
20-Jun-15 09:37 34.859434 -120.233043 132 18024ft 329kts
20-Jun-15 09:38 34.802362 -120.157218 132 16823ft 329kts
20-Jun-15 09:39 34.749343 -120.086927 132 15717ft 329kts
20-Jun-15 09:40 34.680006 -120.056633 193 14556ft 324kts
20-Jun-15 09:41 34.599440 -120.079525 193 13378ft 324kts
20-Jun-15 09:42 34.521878 -120.098188 171 11856ft 298kts
20-Jun-15 09:43 34.469073 -120.046211 105 10213ft 279kts
20-Jun-15 09:44 34.460420 -119.971624 98 8699ft 256kts
20-Jun-15 09:45 34.454092 -119.911143 96 7408ft 251kts
20-Jun-15 09:46 34.469146 -119.858877 79 6207ft 252kts
20-Jun-15 09:47 34.458609 -119.803511 106 5008ft 245kts
20-Jun-15 09:48 34.451645 -119.747189 92 4622ft 201kts
20-Jun-15 09:49 34.437986 -119.709703 192 3954ft 135kts
20-Jun-15 09:50 34.428625 -119.740220 266 3289ft 123kts
20-Jun-15 09:51 34.428351 -119.773132 266 2174ft 120kts
20-Jun-15 09:52 34.428063 -119.803161 267 1084ft 117kts
20-Jun-15 09:53 34.427771 -119.831940 265 147ft 113kts
20-Jun-15 09:54 34.427175 -119.851572 236 13ft 14kts
20-Jun-15 09:55 34.426392 -119.851801 156 13ft 5kts
20-Jun-15 09:56 34.426194 -119.850491 89 13ft 17kts
20-Jun-15 09:57 34.426288 -119.845425 89 13ft 17kts
20-Jun-15 09:58 34.426390 -119.841176 89 13ft 21kts
20-Jun-15 09:59 34.425162 -119.837894 139 13ft 13kts
20-Jun-15 10:00 34.424892 -119.837326 110 13ft 0kts
20-Jun-15 10:01 34.424892 -119.837326 110 13ft 0kts
20-Jun-15 10:02 34.424892 -119.837326 110 13ft 0kts
20-Jun-15 10:03 34.424892 -119.837326 110 13ft 0kts
20-Jun-15 10:04 34.424892 -119.837326 110 13ft 0kts
20-Jun-15 10:05 34.424892 -119.837326 110 13ft 0kts
20-Jun-15 10:06 34.424892 -119.837326 110 13ft 0kts
20-Jun-15 10:07 34.424892 -119.837326 110 13ft 0kts
20-Jun-15 10:08 34.424892 -119.837326 110 13ft 0kts

Navigation Log

Ident Type
Flight plan parsing failed, navigation log unavailable